sensor_id;sensor_type;location;lat;lon;timestamp;temperature;humidity
20858;DHT22;10589;53.636;10.012;2024-02-14T04:46:17;4.70;99.90
20858;DHT22;10589;53.636;10.012;2024-02-14T04:48:42;4.60;99.90
20858;DHT22;10589;53.636;10.012;2024-02-14T04:51:08;4.60;99.90
20858;DHT22;10589;53.636;10.012;2024-02-14T04:53:34;4.70;99.90
20858;DHT22;10589;53.636;10.012;2024-02-14T04:55:59;4.70;99.90
20858;DHT22;10589;53.636;10.012;2024-02-14T04:58:25;4.60;99.90
20858;DHT22;10589;53.636;10.012;2024-02-14T05:00:52;4.70;99.90
20858;DHT22;10589;53.636;10.012;2024-02-14T05:03:18;4.70;99.90
20858;DHT22;10589;53.636;10.012;2024-02-14T05:05:44;4.70;99.90
20858;DHT22;10589;53.636;10.012;2024-02-14T05:08:09;4.70;99.90
20858;DHT22;10589;53.636;10.012;2024-02-14T05:10:35;4.80;99.90
20858;DHT22;10589;53.636;10.012;2024-02-14T05:13:00;4.90;99.90
20858;DHT22;10589;53.636;10.012;2024-02-14T05:15:26;4.90;99.90
20858;DHT22;10589;53.636;10.012;2024-02-14T05:17:52;4.90;99.90
20858;DHT22;10589;53.636;10.012;2024-02-14T05:20:20;4.90;99.90
20858;DHT22;10589;53.636;10.012;2024-02-14T05:22:46;5.00;99.90
20858;DHT22;10589;53.636;10.012;2024-02-14T05:25:11;4.90;99.90
20858;DHT22;10589;53.636;10.012;2024-02-14T05:27:37;5.00;99.90
20858;DHT22;10589;53.636;10.012;2024-02-14T05:30:04;4.90;99.90
20858;DHT22;10589;53.636;10.012;2024-02-14T05:32:33;4.90;99.90
20858;DHT22;10589;53.636;10.012;2024-02-14T05:34:58;4.90;99.90
20858;DHT22;10589;53.636;10.012;2024-02-14T05:37:24;4.90;99.90
20858;DHT22;10589;53.636;10.012;2024-02-14T05:39:53;4.90;99.90
20858;DHT22;10589;53.636;10.012;2024-02-14T05:42:19;5.00;99.90
20858;DHT22;10589;53.636;10.012;2024-02-14T05:44:44;5.00;99.90
20858;DHT22;10589;53.636;10.012;2024-02-14T05:47:10;4.90;99.90
20858;DHT22;10589;53.636;10.012;2024-02-14T05:49:38;5.10;99.90
20858;DHT22;10589;53.636;10.012;2024-02-14T05:52:03;5.10;99.90
20858;DHT22;10589;53.636;10.012;2024-02-14T05:54:29;5.10;99.90
20858;DHT22;10589;53.636;10.012;2024-02-14T05:56:54;5.10;99.90
20858;DHT22;10589;53.636;10.012;2024-02-14T05:59:22;5.10;99.90
20858;DHT22;10589;53.636;10.012;2024-02-14T06:01:47;5.20;99.90
20858;DHT22;10589;53.636;10.012;2024-02-14T06:04:13;5.20;99.90
20858;DHT22;10589;53.636;10.012;2024-02-14T06:06:38;5.10;99.90
20858;DHT22;10589;53.636;10.012;2024-02-14T06:09:04;5.10;99.90
20858;DHT22;10589;53.636;10.012;2024-02-14T06:11:35;5.20;99.90
20858;DHT22;10589;53.636;10.012;2024-02-14T06:14:01;5.10;99.90
20858;DHT22;10589;53.636;10.012;2024-02-14T06:16:27;5.20;99.90
20858;DHT22;10589;53.636;10.012;2024-02-14T06:18:52;5.20;99.90
20858;DHT22;10589;53.636;10.012;2024-02-14T06:21:18;5.30;99.90
20858;DHT22;10589;53.636;10.012;2024-02-14T06:23:44;5.30;99.90
20858;DHT22;10589;53.636;10.012;2024-02-14T06:26:13;5.40;99.90
20858;DHT22;10589;53.636;10.012;2024-02-14T06:28:39;5.40;99.90
20858;DHT22;10589;53.636;10.012;2024-02-14T06:31:05;5.40;99.90
20858;DHT22;10589;53.636;10.012;2024-02-14T06:33:30;5.50;99.90
20858;DHT22;10589;53.636;10.012;2024-02-14T06:35:56;5.40;99.90
20858;DHT22;10589;53.636;10.012;2024-02-14T06:38:22;5.50;99.90
20858;DHT22;10589;53.636;10.012;2024-02-14T06:40:47;5.50;99.90
20858;DHT22;10589;53.636;10.012;2024-02-14T06:43:13;5.50;99.90
20858;DHT22;10589;53.636;10.012;2024-02-14T06:45:39;5.60;99.90
20858;DHT22;10589;53.636;10.012;2024-02-14T06:48:05;5.60;99.90
20858;DHT22;10589;53.636;10.012;2024-02-14T06:50:30;5.60;99.90
20858;DHT22;10589;53.636;10.012;2024-02-14T06:52:56;5.60;99.90
20858;DHT22;10589;53.636;10.012;2024-02-14T06:55:26;5.60;99.90
20858;DHT22;10589;53.636;10.012;2024-02-14T06:57:52;5.60;99.90
20858;DHT22;10589;53.636;10.012;2024-02-14T07:00:18;5.60;99.90
20858;DHT22;10589;53.636;10.012;2024-02-14T07:02:44;5.70;99.90
20858;DHT22;10589;53.636;10.012;2024-02-14T07:05:12;5.60;99.90
20858;DHT22;10589;53.636;10.012;2024-02-14T07:07:42;5.70;99.90
20858;DHT22;10589;53.636;10.012;2024-02-14T07:10:08;5.70;99.90
20858;DHT22;10589;53.636;10.012;2024-02-14T07:12:34;5.70;99.90
20858;DHT22;10589;53.636;10.012;2024-02-14T07:15:02;5.70;99.90
20858;DHT22;10589;53.636;10.012;2024-02-14T07:17:29;5.70;99.90
20858;DHT22;10589;53.636;10.012;2024-02-14T07:19:55;5.70;99.90
20858;DHT22;10589;53.636;10.012;2024-02-14T07:22:20;5.80;99.90
20858;DHT22;10589;53.636;10.012;2024-02-14T07:24:46;5.80;99.90
20858;DHT22;10589;53.636;10.012;2024-02-14T07:27:13;5.80;99.90
20858;DHT22;10589;53.636;10.012;2024-02-14T07:29:39;5.80;99.90
20858;DHT22;10589;53.636;10.012;2024-02-14T07:32:05;5.80;99.90
20858;DHT22;10589;53.636;10.012;2024-02-14T07:34:32;5.90;99.90
20858;DHT22;10589;53.636;10.012;2024-02-14T07:36:57;5.90;99.90
20858;DHT22;10589;53.636;10.012;2024-02-14T07:39:23;5.90;99.90
20858;DHT22;10589;53.636;10.012;2024-02-14T07:41:49;5.90;99.90
20858;DHT22;10589;53.636;10.012;2024-02-14T07:44:14;5.90;99.90
20858;DHT22;10589;53.636;10.012;2024-02-14T07:46:43;5.90;99.90
20858;DHT22;10589;53.636;10.012;2024-02-14T07:49:09;6.00;99.90
20858;DHT22;10589;53.636;10.012;2024-02-14T07:51:35;6.00;99.90
20858;DHT22;10589;53.636;10.012;2024-02-14T07:54:04;6.00;99.90
20858;DHT22;10589;53.636;10.012;2024-02-14T07:56:31;6.00;99.90
20858;DHT22;10589;53.636;10.012;2024-02-14T07:58:57;6.00;99.90
20858;DHT22;10589;53.636;10.012;2024-02-14T08:01:23;6.10;99.90
20858;DHT22;10589;53.636;10.012;2024-02-14T08:03:48;6.10;99.90
20858;DHT22;10589;53.636;10.012;2024-02-14T08:06:14;6.10;99.90
20858;DHT22;10589;53.636;10.012;2024-02-14T08:08:40;6.10;99.90
20858;DHT22;10589;53.636;10.012;2024-02-14T08:11:06;6.20;99.90
20858;DHT22;10589;53.636;10.012;2024-02-14T08:13:32;6.20;99.90
20858;DHT22;10589;53.636;10.012;2024-02-14T08:15:57;6.20;99.90
20858;DHT22;10589;53.636;10.012;2024-02-14T08:18:26;6.20;99.90
20858;DHT22;10589;53.636;10.012;2024-02-14T08:20:53;6.30;99.90
20858;DHT22;10589;53.636;10.012;2024-02-14T08:23:18;6.30;99.90
20858;DHT22;10589;53.636;10.012;2024-02-14T08:25:45;6.30;99.90
20858;DHT22;10589;53.636;10.012;2024-02-14T08:28:11;6.40;99.90
20858;DHT22;10589;53.636;10.012;2024-02-14T08:30:37;6.40;99.90
20858;DHT22;10589;53.636;10.012;2024-02-14T08:33:03;6.40;99.90
20858;DHT22;10589;53.636;10.012;2024-02-14T08:35:29;6.50;99.90
20858;DHT22;10589;53.636;10.012;2024-02-14T08:37:54;6.50;99.90
20858;DHT22;10589;53.636;10.012;2024-02-14T08:40:20;6.50;99.90
20858;DHT22;10589;53.636;10.012;2024-02-14T08:42:46;6.60;99.90
20858;DHT22;10589;53.636;10.012;2024-02-14T08:45:12;6.60;99.90
20858;DHT22;10589;53.636;10.012;2024-02-14T08:47:38;6.60;99.90
20858;DHT22;10589;53.636;10.012;2024-02-14T08:50:05;6.60;99.90
20858;DHT22;10589;53.636;10.012;2024-02-14T08:52:31;6.70;99.90
20858;DHT22;10589;53.636;10.012;2024-02-14T08:54:58;6.80;99.90
20858;DHT22;10589;53.636;10.012;2024-02-14T08:57:23;6.80;99.90
20858;DHT22;10589;53.636;10.012;2024-02-14T08:59:49;6.80;99.90
20858;DHT22;10589;53.636;10.012;2024-02-14T09:02:16;6.90;99.90
20858;DHT22;10589;53.636;10.012;2024-02-14T09:04:42;6.90;99.90
20858;DHT22;10589;53.636;10.012;2024-02-14T09:07:07;7.00;99.90
20858;DHT22;10589;53.636;10.012;2024-02-14T09:09:33;7.00;99.90
20858;DHT22;10589;53.636;10.012;2024-02-14T09:11:59;7.10;99.90
20858;DHT22;10589;53.636;10.012;2024-02-14T09:14:31;7.10;99.90
20858;DHT22;10589;53.636;10.012;2024-02-14T09:16:57;7.20;99.90
20858;DHT22;10589;53.636;10.012;2024-02-14T09:19:23;7.20;99.90
20858;DHT22;10589;53.636;10.012;2024-02-14T09:21:50;7.30;99.90
20858;DHT22;10589;53.636;10.012;2024-02-14T09:24:16;7.40;99.90
20858;DHT22;10589;53.636;10.012;2024-02-14T09:26:41;7.40;99.90
20858;DHT22;10589;53.636;10.012;2024-02-14T09:29:08;7.50;99.90
20858;DHT22;10589;53.636;10.012;2024-02-14T09:31:36;7.50;99.90
20858;DHT22;10589;53.636;10.012;2024-02-14T09:34:02;7.50;99.90
20858;DHT22;10589;53.636;10.012;2024-02-14T09:36:28;7.50;99.90
20858;DHT22;10589;53.636;10.012;2024-02-14T09:38:54;7.50;99.90
20858;DHT22;10589;53.636;10.012;2024-02-14T09:41:54;7.60;99.90
20858;DHT22;10589;53.636;10.012;2024-02-14T09:44:21;7.60;99.90
20858;DHT22;10589;53.636;10.012;2024-02-14T09:46:48;7.60;99.90
20858;DHT22;10589;53.636;10.012;2024-02-14T09:49:14;7.80;99.90
20858;DHT22;10589;53.636;10.012;2024-02-14T09:51:43;7.80;99.90
20858;DHT22;10589;53.636;10.012;2024-02-14T09:54:10;7.90;99.90
20858;DHT22;10589;53.636;10.012;2024-02-14T09:56:36;7.90;99.90
20858;DHT22;10589;53.636;10.012;2024-02-14T09:59:02;7.90;99.90
20858;DHT22;10589;53.636;10.012;2024-02-14T10:01:28;8.00;99.90
20858;DHT22;10589;53.636;10.012;2024-02-14T10:03:54;8.00;99.90
20858;DHT22;10589;53.636;10.012;2024-02-14T10:06:21;8.10;99.90
20858;DHT22;10589;53.636;10.012;2024-02-14T10:08:50;8.10;99.90
20858;DHT22;10589;53.636;10.012;2024-02-14T10:11:18;8.20;99.90
20858;DHT22;10589;53.636;10.012;2024-02-14T10:13:47;8.40;99.90
20858;DHT22;10589;53.636;10.012;2024-02-14T10:16:16;8.40;99.90
20858;DHT22;10589;53.636;10.012;2024-02-14T10:18:44;8.50;99.90
20858;DHT22;10589;53.636;10.012;2024-02-14T10:21:15;8.50;99.90
20858;DHT22;10589;53.636;10.012;2024-02-14T10:23:43;8.50;99.90
20858;DHT22;10589;53.636;10.012;2024-02-14T10:26:09;8.60;99.90
20858;DHT22;10589;53.636;10.012;2024-02-14T10:28:34;8.60;99.90
20858;DHT22;10589;53.636;10.012;2024-02-14T10:31:01;8.70;99.90
20858;DHT22;10589;53.636;10.012;2024-02-14T10:33:28;8.80;99.90
20858;DHT22;10589;53.636;10.012;2024-02-14T10:35:55;8.80;99.90
20858;DHT22;10589;53.636;10.012;2024-02-14T10:38:22;8.90;99.90
20858;DHT22;10589;53.636;10.012;2024-02-14T10:40:49;9.00;99.90
20858;DHT22;10589;53.636;10.012;2024-02-14T10:43:16;9.00;99.90
20858;DHT22;10589;53.636;10.012;2024-02-14T10:45:42;9.10;99.90
20858;DHT22;10589;53.636;10.012;2024-02-14T10:48:11;9.10;99.90
20858;DHT22;10589;53.636;10.012;2024-02-14T10:50:40;9.20;99.90
20858;DHT22;10589;53.636;10.012;2024-02-14T10:53:14;9.20;99.90
20858;DHT22;10589;53.636;10.012;2024-02-14T10:55:50;9.30;99.90
20858;DHT22;10589;53.636;10.012;2024-02-14T10:58:17;9.30;99.90
20858;DHT22;10589;53.636;10.012;2024-02-14T11:00:44;9.30;99.90
20858;DHT22;10589;53.636;10.012;2024-02-14T11:03:10;9.40;99.90
20858;DHT22;10589;53.636;10.012;2024-02-14T11:05:46;9.40;99.90
20858;DHT22;10589;53.636;10.012;2024-02-14T11:08:21;9.40;99.90
20858;DHT22;10589;53.636;10.012;2024-02-14T11:10:55;9.40;99.90
20858;DHT22;10589;53.636;10.012;2024-02-14T11:13:24;9.50;99.90
20858;DHT22;10589;53.636;10.012;2024-02-14T11:15:51;9.50;99.90
20858;DHT22;10589;53.636;10.012;2024-02-14T11:18:29;9.60;99.90
20858;DHT22;10589;53.636;10.012;2024-02-14T11:20:55;9.60;99.90
20858;DHT22;10589;53.636;10.012;2024-02-14T11:23:23;9.60;99.90
20858;DHT22;10589;53.636;10.012;2024-02-14T11:25:49;9.60;99.90
20858;DHT22;10589;53.636;10.012;2024-02-14T11:28:18;9.60;99.90
20858;DHT22;10589;53.636;10.012;2024-02-14T11:30:47;9.60;99.90
20858;DHT22;10589;53.636;10.012;2024-02-14T11:33:23;9.60;99.90
20858;DHT22;10589;53.636;10.012;2024-02-14T11:35:53;9.70;99.90
20858;DHT22;10589;53.636;10.012;2024-02-14T11:38:22;9.70;99.90
20858;DHT22;10589;53.636;10.012;2024-02-14T11:40:51;9.80;99.90
20858;DHT22;10589;53.636;10.012;2024-02-14T11:43:19;9.80;99.90
20858;DHT22;10589;53.636;10.012;2024-02-14T11:45:45;9.80;99.90
20858;DHT22;10589;53.636;10.012;2024-02-14T11:48:16;9.90;99.90
20858;DHT22;10589;53.636;10.012;2024-02-14T11:50:52;10.00;99.90
20858;DHT22;10589;53.636;10.012;2024-02-14T11:53:18;10.00;99.90
20858;DHT22;10589;53.636;10.012;2024-02-14T11:55:45;10.10;99.90
20858;DHT22;10589;53.636;10.012;2024-02-14T11:58:15;10.10;99.90
20858;DHT22;10589;53.636;10.012;2024-02-14T12:00:42;10.10;99.90
20858;DHT22;10589;53.636;10.012;2024-02-14T12:03:18;10.20;99.90
20858;DHT22;10589;53.636;10.012;2024-02-14T12:05:47;10.20;99.90
20858;DHT22;10589;53.636;10.012;2024-02-14T12:08:13;10.20;99.90
20858;DHT22;10589;53.636;10.012;2024-02-14T12:10:41;10.30;99.90
20858;DHT22;10589;53.636;10.012;2024-02-14T12:13:14;10.20;99.90
20858;DHT22;10589;53.636;10.012;2024-02-14T12:15:41;10.30;99.90
20858;DHT22;10589;53.636;10.012;2024-02-14T12:18:08;10.40;99.90
20858;DHT22;10589;53.636;10.012;2024-02-14T12:20:35;10.40;99.90
20858;DHT22;10589;53.636;10.012;2024-02-14T12:23:02;10.40;99.90
20858;DHT22;10589;53.636;10.012;2024-02-14T12:25:29;10.40;99.90
20858;DHT22;10589;53.636;10.012;2024-02-14T12:27:56;10.40;99.90
20858;DHT22;10589;53.636;10.012;2024-02-14T12:30:22;10.50;99.90
20858;DHT22;10589;53.636;10.012;2024-02-14T12:33:00;10.50;99.90
20858;DHT22;10589;53.636;10.012;2024-02-14T12:35:34;10.50;99.90
20858;DHT22;10589;53.636;10.012;2024-02-14T12:38:01;10.50;99.90
20858;DHT22;10589;53.636;10.012;2024-02-14T12:40:26;10.60;99.90
20858;DHT22;10589;53.636;10.012;2024-02-14T12:42:54;10.50;99.90
20858;DHT22;10589;53.636;10.012;2024-02-14T12:45:19;10.50;99.90
20858;DHT22;10589;53.636;10.012;2024-02-14T12:47:45;10.50;99.90
20858;DHT22;10589;53.636;10.012;2024-02-14T12:50:11;10.60;99.90
20858;DHT22;10589;53.636;10.012;2024-02-14T12:52:36;10.70;99.90
20858;DHT22;10589;53.636;10.012;2024-02-14T12:55:02;10.70;99.90
20858;DHT22;10589;53.636;10.012;2024-02-14T12:57:28;10.80;99.90
20858;DHT22;10589;53.636;10.012;2024-02-14T12:59:54;10.80;99.90
20858;DHT22;10589;53.636;10.012;2024-02-14T13:02:20;10.80;99.90
20858;DHT22;10589;53.636;10.012;2024-02-14T13:04:46;10.80;99.90
20858;DHT22;10589;53.636;10.012;2024-02-14T13:07:11;10.90;99.90
20858;DHT22;10589;53.636;10.012;2024-02-14T13:09:37;10.90;99.90
20858;DHT22;10589;53.636;10.012;2024-02-14T13:12:04;10.90;99.90
20858;DHT22;10589;53.636;10.012;2024-02-14T13:14:31;10.90;99.90
20858;DHT22;10589;53.636;10.012;2024-02-14T13:16:58;10.90;99.90
20858;DHT22;10589;53.636;10.012;2024-02-14T13:19:24;10.90;99.90
20858;DHT22;10589;53.636;10.012;2024-02-14T13:21:49;10.80;99.90
20858;DHT22;10589;53.636;10.012;2024-02-14T13:24:15;10.80;99.90
20858;DHT22;10589;53.636;10.012;2024-02-14T13:26:41;10.80;99.90
20858;DHT22;10589;53.636;10.012;2024-02-14T13:29:06;10.70;99.90
20858;DHT22;10589;53.636;10.012;2024-02-14T13:31:32;10.80;99.90
20858;DHT22;10589;53.636;10.012;2024-02-14T13:33:58;10.70;99.90
20858;DHT22;10589;53.636;10.012;2024-02-14T13:36:24;10.70;99.90
20858;DHT22;10589;53.636;10.012;2024-02-14T13:38:50;10.80;99.90
20858;DHT22;10589;53.636;10.012;2024-02-14T13:41:16;10.90;99.90
20858;DHT22;10589;53.636;10.012;2024-02-14T13:43:41;10.90;99.90
20858;DHT22;10589;53.636;10.012;2024-02-14T13:46:08;10.80;99.90
20858;DHT22;10589;53.636;10.012;2024-02-14T13:48:35;10.80;99.90
20858;DHT22;10589;53.636;10.012;2024-02-14T13:51:00;10.80;99.90
20858;DHT22;10589;53.636;10.012;2024-02-14T13:53:27;10.80;99.90
20858;DHT22;10589;53.636;10.012;2024-02-14T13:55:53;10.80;99.90
20858;DHT22;10589;53.636;10.012;2024-02-14T13:58:18;10.80;99.90
20858;DHT22;10589;53.636;10.012;2024-02-14T14:00:45;10.80;99.90
20858;DHT22;10589;53.636;10.012;2024-02-14T14:03:11;10.90;99.90
20858;DHT22;10589;53.636;10.012;2024-02-14T14:05:37;10.90;99.90
20858;DHT22;10589;53.636;10.012;2024-02-14T14:08:02;10.90;99.90
20858;DHT22;10589;53.636;10.012;2024-02-14T14:10:28;10.90;99.90
20858;DHT22;10589;53.636;10.012;2024-02-14T14:12:54;10.90;99.90
20858;DHT22;10589;53.636;10.012;2024-02-14T14:15:20;10.90;99.90
20858;DHT22;10589;53.636;10.012;2024-02-14T14:17:47;10.90;99.90
20858;DHT22;10589;53.636;10.012;2024-02-14T14:20:13;10.80;99.90
20858;DHT22;10589;53.636;10.012;2024-02-14T14:22:39;10.90;99.90
20858;DHT22;10589;53.636;10.012;2024-02-14T14:25:05;10.90;99.90
20858;DHT22;10589;53.636;10.012;2024-02-14T14:27:33;10.90;99.90
20858;DHT22;10589;53.636;10.012;2024-02-14T14:29:59;10.90;99.90
20858;DHT22;10589;53.636;10.012;2024-02-14T14:32:25;10.90;99.90
20858;DHT22;10589;53.636;10.012;2024-02-14T14:34:50;10.90;99.90
20858;DHT22;10589;53.636;10.012;2024-02-14T14:37:16;10.90;99.90
20858;DHT22;10589;53.636;10.012;2024-02-14T14:39:41;10.90;99.90
20858;DHT22;10589;53.636;10.012;2024-02-14T14:42:09;10.90;99.90
20858;DHT22;10589;53.636;10.012;2024-02-14T14:44:34;10.90;99.90
20858;DHT22;10589;53.636;10.012;2024-02-14T14:47:01;10.90;99.90
20858;DHT22;10589;53.636;10.012;2024-02-14T14:49:27;10.90;99.90
20858;DHT22;10589;53.636;10.012;2024-02-14T14:51:53;10.80;99.90
20858;DHT22;10589;53.636;10.012;2024-02-14T14:54:19;10.80;99.90
20858;DHT22;10589;53.636;10.012;2024-02-14T14:56:45;10.80;99.90
20858;DHT22;10589;53.636;10.012;2024-02-14T14:59:11;10.80;99.90
20858;DHT22;10589;53.636;10.012;2024-02-14T15:01:37;10.80;99.90
20858;DHT22;10589;53.636;10.012;2024-02-14T15:04:04;10.80;99.90
20858;DHT22;10589;53.636;10.012;2024-02-14T15:06:31;10.80;99.90
20858;DHT22;10589;53.636;10.012;2024-02-14T15:08:57;10.80;99.90
20858;DHT22;10589;53.636;10.012;2024-02-14T15:11:22;10.80;99.90
20858;DHT22;10589;53.636;10.012;2024-02-14T15:13:48;10.80;99.90
20858;DHT22;10589;53.636;10.012;2024-02-14T15:16:14;10.70;99.90
20858;DHT22;10589;53.636;10.012;2024-02-14T15:18:40;10.70;99.90
20858;DHT22;10589;53.636;10.012;2024-02-14T15:21:08;10.80;99.90
20858;DHT22;10589;53.636;10.012;2024-02-14T15:23:34;10.70;99.90
20858;DHT22;10589;53.636;10.012;2024-02-14T15:26:00;10.80;99.90
20858;DHT22;10589;53.636;10.012;2024-02-14T15:28:29;10.80;99.90
20858;DHT22;10589;53.636;10.012;2024-02-14T15:30:56;10.70;99.90
20858;DHT22;10589;53.636;10.012;2024-02-14T15:33:41;10.70;99.90
20858;DHT22;10589;53.636;10.012;2024-02-14T15:36:07;10.70;99.90
20858;DHT22;10589;53.636;10.012;2024-02-14T15:38:32;10.70;99.90
20858;DHT22;10589;53.636;10.012;2024-02-14T15:40:58;10.80;99.90
20858;DHT22;10589;53.636;10.012;2024-02-14T15:43:26;10.70;99.90
20858;DHT22;10589;53.636;10.012;2024-02-14T15:45:52;10.70;99.90
20858;DHT22;10589;53.636;10.012;2024-02-14T15:48:18;10.70;99.90
20858;DHT22;10589;53.636;10.012;2024-02-14T15:50:45;10.70;99.90
20858;DHT22;10589;53.636;10.012;2024-02-14T15:53:15;10.70;99.90
20858;DHT22;10589;53.636;10.012;2024-02-14T15:55:41;10.70;99.90
20858;DHT22;10589;53.636;10.012;2024-02-14T15:58:08;10.70;99.90
20858;DHT22;10589;53.636;10.012;2024-02-14T16:00:34;10.70;99.90
20858;DHT22;10589;53.636;10.012;2024-02-14T16:03:01;10.70;99.90
20858;DHT22;10589;53.636;10.012;2024-02-14T16:05:28;10.70;99.90
20858;DHT22;10589;53.636;10.012;2024-02-14T16:07:55;10.70;99.90
20858;DHT22;10589;53.636;10.012;2024-02-14T16:10:20;10.70;99.90
20858;DHT22;10589;53.636;10.012;2024-02-14T16:12:46;10.70;99.90
20858;DHT22;10589;53.636;10.012;2024-02-14T16:15:14;10.70;99.90
20858;DHT22;10589;53.636;10.012;2024-02-14T16:17:40;10.70;99.90
20858;DHT22;10589;53.636;10.012;2024-02-14T16:20:09;10.70;99.90
20858;DHT22;10589;53.636;10.012;2024-02-14T16:22:36;10.70;99.90
20858;DHT22;10589;53.636;10.012;2024-02-14T16:25:02;10.70;99.90
20858;DHT22;10589;53.636;10.012;2024-02-14T16:27:28;10.70;99.90
20858;DHT22;10589;53.636;10.012;2024-02-14T16:29:53;10.70;99.90
20858;DHT22;10589;53.636;10.012;2024-02-14T16:32:19;10.70;99.90
20858;DHT22;10589;53.636;10.012;2024-02-14T16:34:45;10.80;99.90
20858;DHT22;10589;53.636;10.012;2024-02-14T16:37:17;10.80;99.90
20858;DHT22;10589;53.636;10.012;2024-02-14T16:39:46;10.80;99.90
20858;DHT22;10589;53.636;10.012;2024-02-14T16:42:12;10.80;99.90
20858;DHT22;10589;53.636;10.012;2024-02-14T16:44:38;10.80;99.90
20858;DHT22;10589;53.636;10.012;2024-02-14T16:47:04;10.70;99.90
20858;DHT22;10589;53.636;10.012;2024-02-14T16:49:30;10.80;99.90
20858;DHT22;10589;53.636;10.012;2024-02-14T16:51:55;10.80;99.90
20858;DHT22;10589;53.636;10.012;2024-02-14T16:54:21;10.80;99.90
20858;DHT22;10589;53.636;10.012;2024-02-14T16:56:48;10.70;99.90
20858;DHT22;10589;53.636;10.012;2024-02-14T16:59:13;10.70;99.90
20858;DHT22;10589;53.636;10.012;2024-02-14T17:01:39;10.70;99.90
20858;DHT22;10589;53.636;10.012;2024-02-14T17:04:05;10.70;99.90
20858;DHT22;10589;53.636;10.012;2024-02-14T17:06:31;10.70;99.90
20858;DHT22;10589;53.636;10.012;2024-02-14T17:08:56;10.70;99.90
20858;DHT22;10589;53.636;10.012;2024-02-14T17:11:22;10.70;99.90
20858;DHT22;10589;53.636;10.012;2024-02-14T17:13:48;10.70;99.90
20858;DHT22;10589;53.636;10.012;2024-02-14T17:16:13;10.70;99.90
20858;DHT22;10589;53.636;10.012;2024-02-14T17:18:40;10.70;99.90
20858;DHT22;10589;53.636;10.012;2024-02-14T17:21:07;10.80;99.90
20858;DHT22;10589;53.636;10.012;2024-02-14T17:23:32;10.70;99.90
20858;DHT22;10589;53.636;10.012;2024-02-14T17:25:58;10.70;99.90
20858;DHT22;10589;53.636;10.012;2024-02-14T17:28:25;10.70;99.90
20858;DHT22;10589;53.636;10.012;2024-02-14T17:30:51;10.70;99.90
20858;DHT22;10589;53.636;10.012;2024-02-14T17:33:17;10.70;99.90
20858;DHT22;10589;53.636;10.012;2024-02-14T17:35:43;10.70;99.90
20858;DHT22;10589;53.636;10.012;2024-02-14T17:38:08;10.70;99.90
20858;DHT22;10589;53.636;10.012;2024-02-14T17:40:34;10.70;99.90
20858;DHT22;10589;53.636;10.012;2024-02-14T17:43:00;10.70;99.90
20858;DHT22;10589;53.636;10.012;2024-02-14T17:45:25;10.70;99.90
20858;DHT22;10589;53.636;10.012;2024-02-14T17:47:51;10.70;99.90
20858;DHT22;10589;53.636;10.012;2024-02-14T17:50:17;10.70;99.90
20858;DHT22;10589;53.636;10.012;2024-02-14T17:52:42;10.70;99.90
20858;DHT22;10589;53.636;10.012;2024-02-14T17:55:11;10.70;99.90
20858;DHT22;10589;53.636;10.012;2024-02-14T17:57:37;10.70;99.90
20858;DHT22;10589;53.636;10.012;2024-02-14T18:00:03;10.70;99.90
20858;DHT22;10589;53.636;10.012;2024-02-14T18:02:37;10.70;99.90
20858;DHT22;10589;53.636;10.012;2024-02-14T18:05:02;10.70;99.90
20858;DHT22;10589;53.636;10.012;2024-02-14T18:07:28;10.70;99.90
20858;DHT22;10589;53.636;10.012;2024-02-14T18:09:54;10.70;99.90
20858;DHT22;10589;53.636;10.012;2024-02-14T18:12:20;10.70;99.90
20858;DHT22;10589;53.636;10.012;2024-02-14T18:14:46;10.70;99.90
20858;DHT22;10589;53.636;10.012;2024-02-14T18:17:12;10.70;99.90
20858;DHT22;10589;53.636;10.012;2024-02-14T18:19:37;10.70;99.90
20858;DHT22;10589;53.636;10.012;2024-02-14T18:22:03;10.70;99.90
20858;DHT22;10589;53.636;10.012;2024-02-14T18:24:29;10.70;99.90
20858;DHT22;10589;53.636;10.012;2024-02-14T18:26:54;10.70;99.90
20858;DHT22;10589;53.636;10.012;2024-02-14T18:29:20;10.60;99.90
20858;DHT22;10589;53.636;10.012;2024-02-14T18:31:48;10.70;99.90
20858;DHT22;10589;53.636;10.012;2024-02-14T18:34:14;10.60;99.90
20858;DHT22;10589;53.636;10.012;2024-02-14T18:36:50;10.60;99.90
20858;DHT22;10589;53.636;10.012;2024-02-14T18:39:15;10.70;99.90
20858;DHT22;10589;53.636;10.012;2024-02-14T18:41:42;10.70;99.90
20858;DHT22;10589;53.636;10.012;2024-02-14T18:44:09;10.60;99.90
20858;DHT22;10589;53.636;10.012;2024-02-14T18:46:35;10.70;99.90
20858;DHT22;10589;53.636;10.012;2024-02-14T18:49:03;10.70;99.90
20858;DHT22;10589;53.636;10.012;2024-02-14T18:51:31;10.70;99.90
20858;DHT22;10589;53.636;10.012;2024-02-14T18:54:00;10.70;99.90
20858;DHT22;10589;53.636;10.012;2024-02-14T18:56:26;10.70;99.90
20858;DHT22;10589;53.636;10.012;2024-02-14T18:58:51;10.70;99.90
20858;DHT22;10589;53.636;10.012;2024-02-14T19:01:22;10.70;99.90
20858;DHT22;10589;53.636;10.012;2024-02-14T19:03:51;10.70;99.90
20858;DHT22;10589;53.636;10.012;2024-02-14T19:06:18;10.70;99.90
20858;DHT22;10589;53.636;10.012;2024-02-14T19:08:44;10.70;99.90
20858;DHT22;10589;53.636;10.012;2024-02-14T19:11:15;10.70;99.90
20858;DHT22;10589;53.636;10.012;2024-02-14T19:13:51;10.70;99.90
20858;DHT22;10589;53.636;10.012;2024-02-14T19:16:16;10.70;99.90
20858;DHT22;10589;53.636;10.012;2024-02-14T19:18:43;10.70;99.90
20858;DHT22;10589;53.636;10.012;2024-02-14T19:21:10;10.70;99.90
20858;DHT22;10589;53.636;10.012;2024-02-14T19:23:36;10.70;99.90
20858;DHT22;10589;53.636;10.012;2024-02-14T19:26:09;10.70;99.90
20858;DHT22;10589;53.636;10.012;2024-02-14T19:28:35;10.70;99.90
20858;DHT22;10589;53.636;10.012;2024-02-14T19:31:01;10.80;99.90
20858;DHT22;10589;53.636;10.012;2024-02-14T19:33:26;10.80;99.90
20858;DHT22;10589;53.636;10.012;2024-02-14T19:35:52;10.80;99.90
20858;DHT22;10589;53.636;10.012;2024-02-14T19:38:18;10.80;99.90
20858;DHT22;10589;53.636;10.012;2024-02-14T19:40:44;10.70;99.90
20858;DHT22;10589;53.636;10.012;2024-02-14T19:43:10;10.70;99.90
20858;DHT22;10589;53.636;10.012;2024-02-14T19:45:36;10.80;99.90
20858;DHT22;10589;53.636;10.012;2024-02-14T19:48:06;10.80;99.90
20858;DHT22;10589;53.636;10.012;2024-02-14T19:50:37;10.80;99.90
20858;DHT22;10589;53.636;10.012;2024-02-14T19:53:02;10.80;99.90
20858;DHT22;10589;53.636;10.012;2024-02-14T19:55:28;10.70;99.90
20858;DHT22;10589;53.636;10.012;2024-02-14T19:57:54;10.70;99.90
20858;DHT22;10589;53.636;10.012;2024-02-14T20:00:20;10.70;99.90
20858;DHT22;10589;53.636;10.012;2024-02-14T20:02:46;10.80;99.90
20858;DHT22;10589;53.636;10.012;2024-02-14T20:05:11;10.80;99.90